Time;durP1;ratioP1;P1;durP2;ratioP2;P2;SDS_P1;SDS_P2;PMS_P1;PMS_P2;Temp;Humidity;BMP_temperature;BMP_pressure;BME280_temperature;BME280_humidity;BME280_pressure;Samples;Min_cycle;Max_cycle;Signal;HPM_P1;HPM_P2
2023/11/15 00:04:53;;;;;;;;;;;;;;;20.24;42.85;95045.34;10456918;28;2608;-50
2023/11/15 00:09:53;;;;;;;;;;;;;;;20.24;42.56;95045.34;10458153;28;2623;-49
2023/11/15 00:14:54;;;;;;;;;;;;;;;20.19;42.85;95038.31;10470796;28;2578;-49
2023/11/15 00:19:55;;;;;;;;;;;;;;;20.15;42.87;95045.16;10473442;28;2574;-50
2023/11/15 00:24:55;;;;;;;;;;;;;;;20.14;42.86;95048.88;10471414;28;2669;-46
2023/11/15 00:29:55;;;;;;;;;;;;;;;20.10;42.58;95041.84;10468583;28;2553;-50
2023/11/15 00:34:56;;;;;;;;;;;;;;;20.07;42.78;95048.47;10469055;28;2570;-50
2023/11/15 00:39:56;;;;;;;;;;;;;;;20.06;42.73;95048.75;10471415;28;2623;-45
2023/11/15 00:44:56;;;;;;;;;;;;;;;20.03;42.73;95073.03;10472216;28;4648;-50
2023/11/15 00:49:56;;;;;;;;;;;;;;;20.01;42.38;95059.38;10475109;28;2717;-50
2023/11/15 00:54:57;;;;;;;;;;;;;;;19.98;42.85;95079.13;10477015;28;2571;-53
2023/11/15 00:59:57;;;;;;;;;;;;;;;19.95;42.58;95074.44;10476791;28;2596;-50
2023/11/15 01:04:57;;;;;;;;;;;;;;;19.95;42.51;95084.16;10456457;28;2605;-51
2023/11/15 01:09:58;;;;;;;;;;;;;;;19.92;42.73;95087.38;10479817;28;2563;-48
2023/11/15 01:14:59;;;;;;;;;;;;;;;19.89;42.96;95086.09;10458508;28;2725;-51
2023/11/15 01:20:03;;;;;;;;;;;;;;;19.86;42.78;95112.97;10477900;28;2574;-48
2023/11/15 01:25:04;;;;;;;;;;;;;;;19.85;42.80;95127.19;10466737;28;2541;-48
2023/11/15 01:30:04;;;;;;;;;;;;;;;19.84;42.65;95136.16;10480326;28;2580;-50
2023/11/15 01:35:05;;;;;;;;;;;;;;;19.82;42.59;95140.91;10486582;28;2669;-49
2023/11/15 01:40:06;;;;;;;;;;;;;;;19.80;42.81;95132.53;10466545;28;2662;-49
2023/11/15 01:45:06;;;;;;;;;;;;;;;19.78;42.82;95136.50;10477612;28;4689;-52
2023/11/15 01:50:10;;;;;;;;;;;;;;;19.76;42.53;95142.03;10484129;28;2689;-49
2023/11/15 01:55:15;;;;;;;;;;;;;;;19.75;42.79;95127.31;10480320;28;2613;-49
2023/11/15 02:00:15;;;;;;;;;;;;;;;19.72;42.65;95146.28;10486901;28;2585;-49
2023/11/15 02:05:15;;;;;;;;;;;;;;;19.72;42.48;95148.91;10487024;28;2660;-52
2023/11/15 02:10:16;;;;;;;;;;;;;;;19.69;42.63;95174.97;10460873;28;2523;-48
2023/11/15 02:15:17;;;;;;;;;;;;;;;19.69;42.39;95177.63;10462040;28;2572;-51
2023/11/15 02:20:18;;;;;;;;;;;;;;;19.66;42.53;95186.84;10476801;28;2639;-48
2023/11/15 02:25:18;;;;;;;;;;;;;;;19.65;42.53;95197.66;10472234;28;2693;-48
2023/11/15 02:30:18;;;;;;;;;;;;;;;19.64;42.51;95214.50;10483293;28;2593;-47
2023/11/15 02:35:19;;;;;;;;;;;;;;;19.62;42.50;95209.50;10484048;28;2712;-49
2023/11/15 02:40:19;;;;;;;;;;;;;;;19.61;42.50;95215.84;10455366;28;2657;-45
2023/11/15 02:45:19;;;;;;;;;;;;;;;19.59;42.42;95214.53;10459676;28;4708;-44
2023/11/15 02:50:19;;;;;;;;;;;;;;;19.57;42.51;95225.34;10459114;28;2618;-48
2023/11/15 02:55:20;;;;;;;;;;;;;;;19.56;42.76;95236.91;10484537;28;3048;-52
2023/11/15 03:00:20;;;;;;;;;;;;;;;19.54;42.64;95227.75;10477349;28;2750;-49
2023/11/15 03:05:21;;;;;;;;;;;;;;;19.54;42.64;95251.41;10480719;28;2693;-47
2023/11/15 03:10:21;;;;;;;;;;;;;;;19.52;42.60;95269.28;10466424;28;2639;-49
2023/11/15 03:15:21;;;;;;;;;;;;;;;19.52;42.58;95272.69;10488301;28;2628;-50
2023/11/15 03:20:21;;;;;;;;;;;;;;;19.48;42.87;95290.09;10481090;28;2593;-44
2023/11/15 03:25:23;;;;;;;;;;;;;;;19.48;42.64;95296.13;10469031;28;2561;-48
2023/11/15 03:30:23;;;;;;;;;;;;;;;19.47;42.60;95306.94;10482644;28;2560;-50
2023/11/15 03:35:23;;;;;;;;;;;;;;;19.44;42.95;95316.16;10476770;28;2605;-47
2023/11/15 03:40:24;;;;;;;;;;;;;;;19.43;42.81;95319.81;10471578;28;2631;-46
2023/11/15 03:45:24;;;;;;;;;;;;;;;19.43;42.63;95340.84;10477697;28;4704;-48
2023/11/15 03:50:24;;;;;;;;;;;;;;;19.41;42.70;95337.72;10481568;28;2600;-52
2023/11/15 03:55:24;;;;;;;;;;;;;;;19.40;42.47;95336.16;10483906;28;2655;-51
2023/11/15 04:00:25;;;;;;;;;;;;;;;19.39;42.78;95358.25;10478113;28;2588;-49
2023/11/15 04:05:27;;;;;;;;;;;;;;;19.38;42.54;95364.56;10474503;28;2687;-49
2023/11/15 04:10:28;;;;;;;;;;;;;;;19.37;42.45;95362.22;10477215;28;3016;-49
2023/11/15 04:15:28;;;;;;;;;;;;;;;19.36;42.56;95386.91;10478040;28;2647;-48
2023/11/15 04:20:31;;;;;;;;;;;;;;;19.34;42.63;95376.69;10456896;28;2693;-47
2023/11/15 04:25:31;;;;;;;;;;;;;;;19.33;42.55;95404.03;10476029;28;2638;-50
2023/11/15 04:30:32;;;;;;;;;;;;;;;19.32;42.66;95412.94;10472445;28;2666;-47
2023/11/15 04:35:32;;;;;;;;;;;;;;;19.32;42.51;95414.78;10474911;28;2591;-51
2023/11/15 04:40:37;;;;;;;;;;;;;;;19.31;42.54;95431.59;10470960;28;2654;-51
2023/11/15 04:45:37;;;;;;;;;;;;;;;19.29;42.52;95439.75;10488784;28;4538;-49
2023/11/15 04:50:37;;;;;;;;;;;;;;;19.29;42.64;95438.97;10476037;28;2529;-50
2023/11/15 04:55:37;;;;;;;;;;;;;;;19.28;42.72;95432.16;10478614;28;2779;-48
2023/11/15 05:00:38;;;;;;;;;;;;;;;19.27;42.47;95435.81;10478171;28;2576;-49
2023/11/15 05:05:38;;;;;;;;;;;;;;;19.27;42.61;95439.25;10473473;28;2593;-50
2023/11/15 05:10:39;;;;;;;;;;;;;;;19.32;42.77;95441.06;10472611;28;2664;-48
2023/11/15 05:15:39;;;;;;;;;;;;;;;19.38;42.78;95445.25;10476113;28;2608;-49
2023/11/15 05:20:39;;;;;;;;;;;;;;;19.48;42.79;95442.56;10467927;28;2602;-48
2023/11/15 05:25:40;;;;;;;;;;;;;;;19.57;42.70;95442.75;10470983;28;2626;-49
2023/11/15 05:30:41;;;;;;;;;;;;;;;19.65;42.91;95445.59;10473028;28;2718;-49
2023/11/15 05:35:41;;;;;;;;;;;;;;;19.74;42.85;95445.78;10456720;28;2624;-48
2023/11/15 05:40:43;;;;;;;;;;;;;;;19.81;42.99;95462.03;10473629;28;2639;-50
2023/11/15 05:45:43;;;;;;;;;;;;;;;19.89;42.76;95464.84;10473512;28;4312;-48
2023/11/15 05:50:44;;;;;;;;;;;;;;;19.94;43.11;95461.41;10460620;28;2601;-46
2023/11/15 05:55:44;;;;;;;;;;;;;;;20.00;42.91;95470.81;10467266;28;2732;-48
2023/11/15 06:00:44;;;;;;;;;;;;;;;20.04;42.43;95467.38;10479599;28;2604;-49
2023/11/15 06:05:45;;;;;;;;;;;;;;;20.07;42.92;95471.31;10466451;28;2704;-48
2023/11/15 06:10:47;;;;;;;;;;;;;;;20.09;42.19;95471.81;10465758;28;2591;-48
2023/11/15 06:15:47;;;;;;;;;;;;;;;20.13;42.16;95472.81;10461034;28;2677;-50
2023/11/15 06:20:49;;;;;;;;;;;;;;;20.16;42.43;95474.88;10470390;28;2568;-52
2023/11/15 06:25:50;;;;;;;;;;;;;;;20.20;42.30;95486.47;10476561;28;2602;-47
2023/11/15 06:30:50;;;;;;;;;;;;;;;20.24;42.24;95490.09;10478610;28;2600;-49
2023/11/15 06:35:50;;;;;;;;;;;;;;;20.24;42.62;95509.31;10474771;28;2643;-51
2023/11/15 06:40:51;;;;;;;;;;;;;;;20.31;42.65;95516.09;10474188;28;4728;-49
2023/11/15 06:45:51;;;;;;;;;;;;;;;20.34;42.44;95524.22;10471278;28;2700;-49
2023/11/15 06:50:52;;;;;;;;;;;;;;;20.36;43.16;95532.63;10472074;28;2704;-53
2023/11/15 06:55:52;;;;;;;;;;;;;;;20.40;42.84;95546.84;10471102;28;2708;-47
2023/11/15 07:00:54;;;;;;;;;;;;;;;20.41;42.34;95550.25;10471925;28;2715;-51
2023/11/15 07:05:54;;;;;;;;;;;;;;;20.40;41.86;95560.00;10467702;28;2589;-48
2023/11/15 07:10:55;;;;;;;;;;;;;;;20.41;41.78;95566.03;10470101;28;2663;-51
2023/11/15 07:15:55;;;;;;;;;;;;;;;20.40;41.83;95575.81;10473393;28;2682;-46
2023/11/15 07:20:55;;;;;;;;;;;;;;;20.39;41.84;95587.38;10459143;28;2636;-53
2023/11/15 07:25:56;;;;;;;;;;;;;;;20.37;42.16;95597.41;10473086;28;2674;-48
2023/11/15 07:30:59;;;;;;;;;;;;;;;20.39;41.73;95608.44;10470675;28;2607;-48
2023/11/15 07:36:00;;;;;;;;;;;;;;;20.39;41.84;95605.81;10472814;28;2561;-49
2023/11/15 07:41:00;;;;;;;;;;;;;;;20.40;41.24;95606.59;10472599;28;4677;-47
2023/11/15 07:46:00;;;;;;;;;;;;;;;20.38;41.71;95609.50;10471148;28;2532;-47
2023/11/15 07:51:03;;;;;;;;;;;;;;;20.39;41.50;95605.03;10468968;28;2606;-50
2023/11/15 07:56:03;;;;;;;;;;;;;;;20.39;41.54;95607.66;10477666;28;2606;-47
2023/11/15 08:01:04;;;;;;;;;;;;;;;20.40;41.54;95611.88;10478619;28;2559;-50
2023/11/15 08:06:05;;;;;;;;;;;;;;;20.40;41.30;95606.59;10467047;28;2628;-49
2023/11/15 08:11:06;;;;;;;;;;;;;;;20.38;41.66;95601.59;10469118;28;2647;-48
2023/11/15 08:16:12;;;;;;;;;;;;;;;20.38;41.60;95614.75;10470397;28;2666;-48
2023/11/15 08:21:13;;;;;;;;;;;;;;;20.37;41.33;95609.78;10467124;28;2535;-52
2023/11/15 08:26:19;;;;;;;;;;;;;;;20.34;41.28;95624.25;10469524;28;2684;-48
2023/11/15 08:31:23;;;;;;;;;;;;;;;20.31;41.78;95630.09;10471147;28;2684;-48
2023/11/15 08:36:23;;;;;;;;;;;;;;;20.30;42.02;95646.16;10452607;28;2684;-49
2023/11/15 08:41:24;;;;;;;;;;;;;;;20.28;41.18;95641.16;10471280;28;2740;-51
2023/11/15 08:46:26;;;;;;;;;;;;;;;20.27;41.88;95655.38;10476301;28;2470;-48
2023/11/15 08:51:29;;;;;;;;;;;;;;;20.26;42.25;95665.13;10447179;28;2582;-46
2023/11/15 08:56:31;;;;;;;;;;;;;;;20.25;42.62;95668.03;10469944;28;2659;-48
2023/11/15 09:01:32;;;;;;;;;;;;;;;20.29;42.46;95666.44;10465294;28;2629;-45
2023/11/15 09:06:35;;;;;;;;;;;;;;;20.31;42.47;95671.41;10463224;28;2558;-49
2023/11/15 09:11:35;;;;;;;;;;;;;;;20.26;42.93;95685.38;10465108;28;2679;-47
2023/11/15 09:16:36;;;;;;;;;;;;;;;20.22;43.13;95689.63;10465260;28;2548;-47
2023/11/15 09:21:37;;;;;;;;;;;;;;;20.20;42.56;95691.75;10472925;28;2588;-48
2023/11/15 09:26:38;;;;;;;;;;;;;;;20.17;42.67;95700.16;10462077;28;2615;-49
2023/11/15 09:31:39;;;;;;;;;;;;;;;20.14;41.97;95704.13;10467786;28;2718;-50
2023/11/15 09:36:39;;;;;;;;;;;;;;;20.12;42.44;95710.72;10465335;28;2565;-49
2023/11/15 09:41:40;;;;;;;;;;;;;;;20.10;42.44;95704.94;10469830;28;4699;-49
2023/11/15 09:46:40;;;;;;;;;;;;;;;20.06;42.38;95722.31;10449857;28;2687;-49
2023/11/15 09:51:40;;;;;;;;;;;;;;;20.04;42.73;95719.16;10473048;28;2636;-49
2023/11/15 09:56:44;;;;;;;;;;;;;;;20.03;42.25;95739.44;10472249;28;2579;-47
2023/11/15 10:01:48;;;;;;;;;;;;;;;20.02;42.23;95739.69;10472564;28;2717;-47
2023/11/15 10:06:50;;;;;;;;;;;;;;;19.99;42.19;95745.53;10471318;28;2594;-48
2023/11/15 10:11:50;;;;;;;;;;;;;;;19.94;42.13;95740.28;10473395;28;2618;-47
2023/11/15 10:16:50;;;;;;;;;;;;;;;19.93;42.43;95742.09;10454895;28;2688;-46
2023/11/15 10:22:02;;;;;;;;;;;;;;;19.92;42.33;95742.38;10474960;28;2646;-48
2023/11/15 10:27:06;;;;;;;;;;;;;;;19.89;42.45;95732.38;10470660;28;2719;-49
2023/11/15 10:32:06;;;;;;;;;;;;;;;19.87;42.24;95727.41;10472323;28;2564;-47
2023/11/15 10:37:10;;;;;;;;;;;;;;;19.84;42.18;95733.22;10473783;28;2622;-48
2023/11/15 10:42:12;;;;;;;;;;;;;;;19.82;42.40;95742.41;10469501;28;4607;-49
2023/11/15 10:47:14;;;;;;;;;;;;;;;19.80;42.06;95747.16;10451376;28;2659;-48
2023/11/15 10:52:14;;;;;;;;;;;;;;;19.78;42.30;95765.06;10475897;28;3079;-48
2023/11/15 10:57:15;;;;;;;;;;;;;;;19.77;42.39;95756.38;10479911;28;2678;-49
2023/11/15 11:02:17;;;;;;;;;;;;;;;19.74;42.22;95756.88;10457944;28;2622;-51
2023/11/15 11:07:24;;;;;;;;;;;;;;;19.73;42.09;95750.06;10473217;28;2780;-49
2023/11/15 11:12:25;;;;;;;;;;;;;;;19.72;42.28;95747.72;10473754;28;2569;-49
2023/11/15 11:17:35;;;;;;;;;;;;;;;19.70;42.05;95745.34;10427852;28;2661;-50
2023/11/15 11:22:35;;;;;;;;;;;;;;;19.68;42.05;95733.53;10467980;28;2590;-48
2023/11/15 11:27:54;;;;;;;;;;;;;;;19.65;42.10;95736.69;10475950;28;2576;-47
2023/11/15 11:33:10;;;;;;;;;;;;;;;19.64;41.99;95745.63;10469318;28;2592;-47
2023/11/15 11:38:31;;;;;;;;;;;;;;;19.64;42.19;95745.63;10476462;28;2586;-49
2023/11/15 11:43:32;;;;;;;;;;;;;;;19.61;42.19;95749.59;10470109;28;4768;-48
2023/11/15 11:48:32;;;;;;;;;;;;;;;19.63;42.04;95767.72;10477976;28;2608;-46
2023/11/15 11:53:37;;;;;;;;;;;;;;;19.59;42.13;95779.81;10468930;28;2669;-48
2023/11/15 11:58:39;;;;;;;;;;;;;;;19.57;42.25;95781.94;10466193;28;2692;-49
2023/11/15 12:03:44;;;;;;;;;;;;;;;19.55;42.27;95769.06;10451153;28;2618;-51
2023/11/15 12:08:49;;;;;;;;;;;;;;;19.55;42.26;95781.41;10463514;28;2598;-50
2023/11/15 12:13:50;;;;;;;;;;;;;;;19.59;42.32;95785.09;10467916;28;2704;-50
2023/11/15 12:19:03;;;;;;;;;;;;;;;19.58;42.57;95778.25;10470863;28;2681;-47
2023/11/15 12:24:06;;;;;;;;;;;;;;;19.58;42.55;95773.00;10452814;28;2671;-52
2023/11/15 12:29:19;;;;;;;;;;;;;;;19.59;42.54;95777.19;10463549;28;2564;-48
2023/11/15 12:34:20;;;;;;;;;;;;;;;19.60;42.12;95766.41;10464540;28;2648;-50
2023/11/15 12:39:23;;;;;;;;;;;;;;;19.63;42.12;95765.88;10466113;28;2648;-48
2023/11/15 12:44:23;;;;;;;;;;;;;;;19.62;42.13;95771.41;10474102;28;4741;-49
2023/11/15 12:49:23;;;;;;;;;;;;;;;19.62;42.33;95776.69;10472070;28;2576;-52
2023/11/15 12:54:24;;;;;;;;;;;;;;;19.58;42.27;95786.91;10465017;28;2525;-46
2023/11/15 12:59:31;;;;;;;;;;;;;;;19.58;42.32;95783.53;10472961;28;3150;-48
2023/11/15 13:04:45;;;;;;;;;;;;;;;19.55;42.49;95760.38;10469004;28;2631;-47
2023/11/15 13:09:45;;;;;;;;;;;;;;;19.53;42.29;95744.06;10469737;28;2774;-46
2023/11/15 13:14:46;;;;;;;;;;;;;;;19.54;42.35;95748.31;10454935;28;2641;-51
2023/11/15 13:19:46;;;;;;;;;;;;;;;19.59;42.08;95762.22;10468349;28;2610;-46
2023/11/15 13:24:48;;;;;;;;;;;;;;;19.59;42.10;95756.16;10468847;28;2584;-49
2023/11/15 13:29:50;;;;;;;;;;;;;;;19.61;42.08;95751.41;10471757;28;2685;-48
2023/11/15 13:34:50;;;;;;;;;;;;;;;19.57;42.09;95751.19;10477914;28;2905;-52
2023/11/15 13:39:50;;;;;;;;;;;;;;;19.55;41.92;95737.50;10474519;28;2847;-47
2023/11/15 13:44:51;;;;;;;;;;;;;;;19.52;42.06;95739.88;10463136;28;4695;-48
2023/11/15 13:49:51;;;;;;;;;;;;;;;19.52;42.11;95740.66;10452296;28;2553;-51
2023/11/15 13:54:51;;;;;;;;;;;;;;;19.51;42.30;95756.69;10466591;28;2556;-50
2023/11/15 13:59:52;;;;;;;;;;;;;;;19.48;42.19;95776.41;10472640;28;2552;-48
2023/11/15 14:04:52;;;;;;;;;;;;;;;19.45;42.29;95792.75;10441173;28;2632;-47
2023/11/15 14:09:52;;;;;;;;;;;;;;;19.43;42.23;95782.47;10469228;28;2633;-46
2023/11/15 14:14:53;;;;;;;;;;;;;;;19.40;42.31;95769.88;10489525;28;2553;-49
2023/11/15 14:19:53;;;;;;;;;;;;;;;19.39;42.44;95775.41;10467389;28;2621;-47
2023/11/15 14:24:54;;;;;;;;;;;;;;;19.38;42.32;95785.13;10449013;28;2595;-48
2023/11/15 14:29:54;;;;;;;;;;;;;;;19.35;42.24;95776.97;10470038;28;2618;-49
2023/11/15 14:34:54;;;;;;;;;;;;;;;19.35;42.33;95788.25;10471317;28;2560;-47
2023/11/15 14:39:56;;;;;;;;;;;;;;;19.39;42.53;95781.41;10472474;28;2668;-51
2023/11/15 14:44:57;;;;;;;;;;;;;;;19.42;42.64;95790.63;10474768;28;4665;-47
2023/11/15 14:49:59;;;;;;;;;;;;;;;19.49;42.69;95796.41;10473470;28;2622;-48
2023/11/15 14:55:04;;;;;;;;;;;;;;;19.57;42.72;95797.72;10473551;28;2604;-46
2023/11/15 15:00:06;;;;;;;;;;;;;;;19.63;42.55;95801.91;10488529;28;2612;-46
2023/11/15 15:05:08;;;;;;;;;;;;;;;19.68;42.47;95805.31;10475525;28;2677;-51
2023/11/15 15:10:09;;;;;;;;;;;;;;;19.74;42.55;95790.31;10470485;28;2687;-50
2023/11/15 15:15:16;;;;;;;;;;;;;;;19.78;42.56;95794.78;10469371;28;2629;-46
2023/11/15 15:20:19;;;;;;;;;;;;;;;19.82;42.35;95808.97;10473645;28;2622;-49
2023/11/15 15:25:19;;;;;;;;;;;;;;;19.86;42.33;95817.13;10470880;28;2518;-49
2023/11/15 15:30:21;;;;;;;;;;;;;;;19.90;42.20;95807.63;10464114;28;2719;-51
2023/11/15 15:35:21;;;;;;;;;;;;;;;19.96;42.21;95828.41;10469609;28;2572;-48
2023/11/15 15:40:26;;;;;;;;;;;;;;;20.02;42.35;95826.53;10473761;28;2606;-47
2023/11/15 15:45:26;;;;;;;;;;;;;;;20.08;42.06;95821.00;10475498;28;4668;-48
2023/11/15 15:50:26;;;;;;;;;;;;;;;20.14;42.14;95837.53;10471507;28;2577;-50
2023/11/15 15:55:27;;;;;;;;;;;;;;;20.17;42.01;95848.31;10467812;28;2670;-47
2023/11/15 16:00:27;;;;;;;;;;;;;;;20.25;41.63;95858.34;10475108;28;2619;-51
2023/11/15 16:05:28;;;;;;;;;;;;;;;20.29;41.49;95861.22;10471000;28;2529;-49
2023/11/15 16:10:28;;;;;;;;;;;;;;;20.35;41.47;95867.25;10467023;28;2560;-46
2023/11/15 16:15:29;;;;;;;;;;;;;;;20.41;41.09;95871.44;10476924;28;2739;-51
2023/11/15 16:20:29;;;;;;;;;;;;;;;20.45;40.85;95877.75;10470220;28;2709;-51
2023/11/15 16:25:29;;;;;;;;;;;;;;;20.49;41.19;95890.09;10471123;28;2634;-50
2023/11/15 16:30:31;;;;;;;;;;;;;;;20.52;40.99;95894.06;10442344;28;2616;-48
2023/11/15 16:35:31;;;;;;;;;;;;;;;20.57;40.80;95907.19;10467109;28;2627;-48
2023/11/15 16:40:31;;;;;;;;;;;;;;;20.58;40.78;95912.19;10468808;28;2636;-47
2023/11/15 16:45:32;;;;;;;;;;;;;;;20.61;41.60;95924.81;10470923;28;4608;-48
2023/11/15 16:50:33;;;;;;;;;;;;;;;20.63;40.79;95922.69;10473975;28;2601;-48
2023/11/15 16:55:34;;;;;;;;;;;;;;;20.70;40.91;95925.06;10474834;28;2682;-49
2023/11/15 17:00:34;;;;;;;;;;;;;;;20.71;41.05;95935.31;10466479;28;2956;-51
2023/11/15 17:05:34;;;;;;;;;;;;;;;20.73;40.74;95954.28;10454059;28;2605;-46
2023/11/15 17:10:35;;;;;;;;;;;;;;;20.74;40.52;95960.34;10465252;28;2694;-51
2023/11/15 17:15:35;;;;;;;;;;;;;;;20.79;40.59;95968.22;10476346;28;2605;-45
2023/11/15 17:20:39;;;;;;;;;;;;;;;20.78;40.88;95977.97;10471379;28;2599;-44
2023/11/15 17:25:39;;;;;;;;;;;;;;;20.82;40.28;95973.75;10473584;28;2823;-49
2023/11/15 17:30:41;;;;;;;;;;;;;;;20.83;40.64;95975.34;10465524;28;2618;-47
2023/11/15 17:35:42;;;;;;;;;;;;;;;20.85;40.63;95996.13;10468727;28;2676;-46
2023/11/15 17:40:42;;;;;;;;;;;;;;;20.85;40.43;95983.75;10460926;28;2621;-49
2023/11/15 17:45:42;;;;;;;;;;;;;;;20.83;40.40;95985.09;10450143;28;2561;-48
2023/11/15 17:50:44;;;;;;;;;;;;;;;20.84;40.53;95987.44;10463896;28;2549;-50
2023/11/15 17:55:44;;;;;;;;;;;;;;;20.85;40.21;95989.03;10466621;28;2617;-48
2023/11/15 18:00:44;;;;;;;;;;;;;;;20.88;40.29;95992.94;10476256;28;2698;-52
2023/11/15 18:05:45;;;;;;;;;;;;;;;20.93;40.39;95991.09;10469380;28;2592;-48
2023/11/15 18:10:45;;;;;;;;;;;;;;;20.93;40.54;95991.09;10474756;28;2630;-48
2023/11/15 18:15:48;;;;;;;;;;;;;;;20.90;40.82;95985.56;10472345;28;2565;-50
2023/11/15 18:20:52;;;;;;;;;;;;;;;20.90;40.74;96001.38;10462713;28;2604;-52
2023/11/15 18:25:53;;;;;;;;;;;;;;;20.89;40.54;95997.19;10469084;28;2596;-47
2023/11/15 18:30:53;;;;;;;;;;;;;;;20.91;39.99;96005.59;10456558;28;2773;-50
2023/11/15 18:35:54;;;;;;;;;;;;;;;20.87;40.30;96008.00;10476717;28;2613;-53
2023/11/15 18:40:54;;;;;;;;;;;;;;;20.86;40.29;96006.41;10455116;28;4527;-47
2023/11/15 18:45:54;;;;;;;;;;;;;;;20.85;40.35;96006.69;10469434;28;2684;-52
2023/11/15 18:50:54;;;;;;;;;;;;;;;20.88;41.18;96020.09;10474177;28;2595;-53
2023/11/15 18:55:59;;;;;;;;;;;;;;;20.94;40.91;96023.50;10478724;28;2661;-47
2023/11/15 19:01:00;;;;;;;;;;;;;;;21.00;40.28;96020.56;10474093;28;2565;-47
2023/11/15 19:06:00;;;;;;;;;;;;;;;21.03;40.00;96022.72;10473676;28;2597;-48
2023/11/15 19:11:00;;;;;;;;;;;;;;;21.06;40.69;96024.78;10460185;28;2622;-52
2023/11/15 19:16:01;;;;;;;;;;;;;;;21.14;39.86;96027.94;10478832;28;2579;-48
2023/11/15 19:21:04;;;;;;;;;;;;;;;21.16;39.72;96026.63;10473407;28;2587;-51
2023/11/15 19:26:04;;;;;;;;;;;;;;;21.20;39.53;96034.78;10478039;28;2569;-51
2023/11/15 19:31:04;;;;;;;;;;;;;;;21.19;39.59;96035.81;10468420;28;2707;-49
2023/11/15 19:36:05;;;;;;;;;;;;;;;21.22;39.93;96049.28;10473949;28;2688;-50
2023/11/15 19:41:06;;;;;;;;;;;;;;;21.22;40.41;96046.63;10478687;28;4704;-50
2023/11/15 19:46:08;;;;;;;;;;;;;;;21.27;39.88;96051.88;10481891;28;2378;-52
2023/11/15 19:51:08;;;;;;;;;;;;;;;21.31;40.05;96050.25;10466388;28;1505;-46
2023/11/15 19:56:08;;;;;;;;;;;;;;;21.33;39.62;96042.88;10504121;28;1997;-49
2023/11/15 20:01:12;;;;;;;;;;;;;;;21.33;39.92;96044.75;10474402;28;1510;-48
2023/11/15 20:06:12;;;;;;;;;;;;;;;21.39;39.60;96046.28;10474777;28;1684;-49
2023/11/15 20:11:15;;;;;;;;;;;;;;;21.36;40.30;96052.09;10478258;28;7091;-51
2023/11/15 20:16:20;;;;;;;;;;;;;;;21.37;39.52;96051.06;10480005;28;6457;-47
2023/11/15 20:21:22;;;;;;;;;;;;;;;21.40;39.74;96047.84;10475041;28;5432;-48
2023/11/15 20:26:22;;;;;;;;;;;;;;;21.42;40.05;96056.28;10477769;28;1529;-47
2023/11/15 20:31:23;;;;;;;;;;;;;;;21.41;40.04;96050.22;10475837;28;5349;-48
2023/11/15 20:36:24;;;;;;;;;;;;;;;21.45;39.80;96053.88;10445329;28;1906;-47
2023/11/15 20:41:24;;;;;;;;;;;;;;;21.46;39.14;96054.69;10480198;28;1763;-49
2023/11/15 20:46:25;;;;;;;;;;;;;;;21.45;40.11;96045.97;10473279;28;6566;-48
2023/11/15 20:51:25;;;;;;;;;;;;;;;21.45;39.87;96045.97;10482313;28;5734;-46
2023/11/15 20:56:25;;;;;;;;;;;;;;;21.46;39.42;96042.28;10476028;28;5498;-47
2023/11/15 21:01:26;;;;;;;;;;;;;;;21.44;39.40;96040.97;10478259;28;1662;-48
2023/11/15 21:06:26;;;;;;;;;;;;;;;21.43;39.42;96042.06;10474501;28;6543;-50
2023/11/15 21:11:26;;;;;;;;;;;;;;;21.42;38.99;96041.25;10481840;28;4165;-49
2023/11/15 21:16:31;;;;;;;;;;;;;;;21.38;39.59;96039.44;10448172;28;5465;-49
2023/11/15 21:21:32;;;;;;;;;;;;;;;21.36;39.23;96047.63;10480271;28;5407;-48
2023/11/15 21:26:33;;;;;;;;;;;;;;;21.28;39.29;96044.75;10478925;28;1528;-50
2023/11/15 21:31:35;;;;;;;;;;;;;;;21.32;39.79;96045.78;10484959;28;2020;-51
2023/11/15 21:36:36;;;;;;;;;;;;;;;21.31;39.43;96042.34;10482095;28;1859;-50
2023/11/15 21:41:36;;;;;;;;;;;;;;;21.28;39.77;96045.53;10479829;28;5370;-48
2023/11/15 21:46:37;;;;;;;;;;;;;;;21.23;39.90;96036.84;10485245;28;1455;-50
2023/11/15 21:51:37;;;;;;;;;;;;;;;21.20;39.28;96037.41;10482994;28;2338;-49
2023/11/15 21:56:37;;;;;;;;;;;;;;;21.21;39.96;96036.34;10481542;28;1466;-51
2023/11/15 22:01:37;;;;;;;;;;;;;;;21.14;40.02;96034.00;10485430;28;1677;-49
2023/11/15 22:06:39;;;;;;;;;;;;;;;21.13;40.33;96042.16;10481003;28;1892;-48
2023/11/15 22:11:39;;;;;;;;;;;;;;;21.10;40.63;96038.25;10478961;28;1957;-48
2023/11/15 22:16:39;;;;;;;;;;;;;;;21.04;40.63;96040.09;10469684;28;2740;-49
2023/11/15 22:21:39;;;;;;;;;;;;;;;20.96;40.96;96026.66;10482433;28;1994;-49
2023/11/15 22:26:40;;;;;;;;;;;;;;;20.91;41.06;96024.84;10475274;28;1875;-47
2023/11/15 22:31:41;;;;;;;;;;;;;;;20.79;41.37;96016.41;10480247;28;2398;-50
2023/11/15 22:36:41;;;;;;;;;;;;;;;20.78;40.75;96012.22;10476932;28;1565;-50
2023/11/15 22:41:41;;;;;;;;;;;;;;;20.76;40.66;96008.28;10482283;28;1700;-49
2023/11/15 22:46:42;;;;;;;;;;;;;;;20.70;40.96;95999.59;10473236;28;1677;-49
2023/11/15 22:51:42;;;;;;;;;;;;;;;20.64;41.04;95987.50;10477947;28;1969;-50
2023/11/15 22:56:42;;;;;;;;;;;;;;;20.61;41.88;95992.53;10477807;28;1512;-47
2023/11/15 23:01:43;;;;;;;;;;;;;;;20.57;41.40;95984.34;10464889;28;1831;-49
2023/11/15 23:06:44;;;;;;;;;;;;;;;20.51;41.66;95984.63;10462878;28;1358;-47
2023/11/15 23:11:44;;;;;;;;;;;;;;;20.50;41.19;95983.88;10464500;28;1963;-49
2023/11/15 23:16:44;;;;;;;;;;;;;;;20.45;41.69;95983.88;10480846;28;5028;-49
2023/11/15 23:21:44;;;;;;;;;;;;;;;20.42;41.58;95978.34;10461622;28;1706;-51
2023/11/15 23:26:45;;;;;;;;;;;;;;;20.38;41.65;95970.16;10480213;28;1770;-49
2023/11/15 23:31:46;;;;;;;;;;;;;;;20.35;41.84;95954.13;10474765;28;1922;-48
2023/11/15 23:36:46;;;;;;;;;;;;;;;20.32;41.56;95950.19;10451989;28;1488;-52
2023/11/15 23:41:47;;;;;;;;;;;;;;;20.29;41.65;95942.81;10484160;28;1820;-48
2023/11/15 23:46:47;;;;;;;;;;;;;;;20.27;41.53;95944.94;10471196;28;1488;-46
2023/11/15 23:51:47;;;;;;;;;;;;;;;20.22;41.65;95948.38;10477750;28;1976;-47
2023/11/15 23:56:47;;;;;;;;;;;;;;;20.19;41.47;95938.38;10479457;28;2655;-52
